Time;durP1;ratioP1;P1;durP2;ratioP2;P2;SDS_P1;SDS_P2;PMS_P1;PMS_P2;Temp;Humidity;BMP_temperature;BMP_pressure;BME280_temperature;BME280_humidity;BME280_pressure;Samples;Min_cycle;Max_cycle;Signal;HPM_P1;HPM_P2
2021/03/05 00:00:14;;;;;;;5.60;1.43;;;5.60;99.90;;;;;;5023350;28;20214;-78
2021/03/05 00:02:41;;;;;;;6.73;1.70;;;5.50;99.90;;;;;;5025286;28;20225;-78
2021/03/05 00:05:27;;;;;;;5.40;0.90;;;5.70;99.90;;;;;;5010124;28;20242;-78
2021/03/05 00:07:54;;;;;;;7.43;2.17;;;5.70;99.90;;;;;;5043652;28;20260;-78
2021/03/05 00:10:28;;;;;;;8.20;1.30;;;5.80;99.90;;;;;;5048720;28;20558;-78
2021/03/05 00:12:55;;;;;;;3.90;1.30;;;5.90;99.90;;;;;;5028514;28;20206;-78
2021/03/05 00:15:23;;;;;;;6.83;1.73;;;5.80;99.90;;;;;;5013048;28;20326;-78
2021/03/05 00:17:50;;;;;;;3.57;1.30;;;5.90;99.90;;;;;;5029544;28;20214;-78
2021/03/05 00:20:19;;;;;;;9.37;2.50;;;5.80;99.90;;;;;;5045562;28;20211;-79
2021/03/05 00:22:45;;;;;;;3.97;1.73;;;5.60;99.90;;;;;;5044715;28;20203;-79
2021/03/05 00:25:12;;;;;;;7.80;1.70;;;5.60;99.90;;;;;;5009327;28;20643;-79
2021/03/05 00:27:38;;;;;;;7.33;1.93;;;5.70;99.90;;;;;;5026279;28;20248;-79
2021/03/05 00:30:09;;;;;;;5.23;1.60;;;5.60;99.90;;;;;;5026498;28;20360;-79
2021/03/05 00:32:36;;;;;;;2.97;1.60;;;5.60;99.90;;;;;;5026144;28;20221;-77
2021/03/05 00:35:06;;;;;;;5.70;1.73;;;5.70;99.90;;;;;;5024384;28;20199;-77
2021/03/05 00:37:33;;;;;;;7.00;1.77;;;5.90;99.90;;;;;;5053820;28;20557;-79
2021/03/05 00:39:59;;;;;;;7.57;1.97;;;5.70;99.90;;;;;;5040710;28;20218;-77
2021/03/05 00:42:26;;;;;;;8.27;1.97;;;5.70;99.90;;;;;;5029464;28;20213;-80
2021/03/05 00:44:52;;;;;;;9.80;2.20;;;5.70;99.90;;;;;;5030015;28;20212;-77
2021/03/05 00:47:19;;;;;;;8.47;2.07;;;5.60;99.90;;;;;;5011769;28;20192;-77
2021/03/05 00:49:45;;;;;;;10.37;2.10;;;5.40;99.90;;;;;;5028694;28;20207;-77
2021/03/05 00:52:12;;;;;;;5.13;2.73;;;5.40;99.90;;;;;;5037432;28;20666;-77
2021/03/05 00:54:38;;;;;;;3.73;2.13;;;5.40;99.90;;;;;;5026833;28;20231;-77
2021/03/05 00:57:05;;;;;;;8.23;2.70;;;5.50;99.90;;;;;;5004908;28;20287;-77
2021/03/05 00:59:31;;;;;;;8.40;3.57;;;5.40;99.90;;;;;;5018727;28;20298;-77
2021/03/05 01:01:58;;;;;;;7.03;3.37;;;5.40;99.90;;;;;;5030928;28;20562;-77
2021/03/05 01:04:26;;;;;;;8.50;4.00;;;5.20;99.90;;;;;;5030374;28;20301;-77
2021/03/05 01:06:52;;;;;;;12.43;3.90;;;5.30;99.90;;;;;;5026967;28;20220;-77
2021/03/05 01:09:19;;;;;;;6.90;4.30;;;5.10;99.90;;;;;;5040819;28;20708;-77
2021/03/05 01:11:46;;;;;;;7.07;4.07;;;5.20;99.90;;;;;;5047155;28;20247;-78
2021/03/05 01:14:12;;;;;;;8.97;4.80;;;5.10;99.90;;;;;;5029733;28;20240;-77
2021/03/05 01:16:38;;;;;;;8.60;4.53;;;5.10;99.90;;;;;;5038428;28;20804;-77
2021/03/05 01:19:09;;;;;;;7.80;4.30;;;5.10;99.90;;;;;;5046902;28;20210;-77
2021/03/05 01:21:35;;;;;;;8.83;4.33;;;5.20;99.90;;;;;;5064643;28;20203;-77
2021/03/05 01:24:03;;;;;;;14.80;5.13;;;5.00;99.90;;;;;;5053186;28;20333;-77
2021/03/05 01:26:29;;;;;;;9.33;5.10;;;5.10;99.90;;;;;;5062229;28;20621;-78
2021/03/05 01:28:56;;;;;;;11.93;5.73;;;5.10;99.90;;;;;;5031047;28;20219;-77
2021/03/05 01:31:22;;;;;;;8.40;4.90;;;5.10;99.90;;;;;;5045620;28;20207;-76
2021/03/05 01:33:50;;;;;;;7.70;4.27;;;5.00;99.90;;;;;;5061844;28;20194;-76
2021/03/05 01:36:34;;;;;;;9.53;5.13;;;5.00;99.90;;;;;;5044917;28;20249;-78
2021/03/05 01:39:00;;;;;;;6.37;4.17;;;4.80;99.90;;;;;;5038549;28;20677;-76
2021/03/05 01:41:27;;;;;;;7.90;5.10;;;4.80;99.90;;;;;;5044547;28;20271;-76
2021/03/05 01:43:53;;;;;;;10.60;5.13;;;4.70;99.90;;;;;;5045365;28;20202;-77
2021/03/05 01:46:21;;;;;;;13.40;5.83;;;4.70;99.90;;;;;;5032617;28;20229;-76
2021/03/05 01:48:48;;;;;;;14.90;5.20;;;4.90;99.90;;;;;;5049473;28;20203;-76
2021/03/05 01:51:19;;;;;;;11.27;6.07;;;4.90;99.90;;;;;;5055717;28;20198;-76
2021/03/05 01:53:48;;;;;;;8.17;4.87;;;5.00;99.90;;;;;;5047812;28;20228;-76
2021/03/05 01:56:36;;;;;;;12.13;5.83;;;5.00;99.90;;;;;;5026574;28;20218;-77
2021/03/05 01:59:06;;;;;;;9.13;5.03;;;5.00;99.90;;;;;;5058212;28;20208;-76
2021/03/05 02:01:34;;;;;;;7.77;4.67;;;5.00;99.90;;;;;;5045369;28;20204;-77
2021/03/05 02:04:03;;;;;;;8.57;5.73;;;5.00;99.90;;;;;;5061458;28;20505;-75
2021/03/05 02:06:30;;;;;;;9.43;5.63;;;4.90;99.90;;;;;;5031460;28;20260;-76
2021/03/05 02:08:56;;;;;;;10.83;5.53;;;5.10;99.90;;;;;;5049556;28;20232;-77
2021/03/05 02:11:24;;;;;;;9.87;4.33;;;4.80;99.90;;;;;;5046955;28;20228;-78
2021/03/05 02:13:55;;;;;;;9.13;4.77;;;4.60;99.90;;;;;;5054450;28;20209;-78
2021/03/05 02:16:40;;;;;;;6.47;4.80;;;4.40;99.90;;;;;;5060665;28;20274;-76
2021/03/05 02:19:20;;;;;;;10.10;5.00;;;4.50;99.90;;;;;;5054738;28;20208;-77
2021/03/05 02:21:53;;;;;;;8.03;4.13;;;4.40;99.90;;;;;;5064570;28;20215;-77
2021/03/05 02:24:38;;;;;;;6.00;4.40;;;4.30;99.90;;;;;;5057104;28;20279;-76
2021/03/05 02:27:32;;;;;;;8.70;4.23;;;4.20;99.90;;;;;;5060453;28;20242;-77
2021/03/05 02:30:17;;;;;;;7.30;4.77;;;4.20;99.90;;;;;;5064221;28;20212;-77
2021/03/05 02:33:19;;;;;;;6.60;4.57;;;4.20;99.90;;;;;;5060810;28;20288;-76
2021/03/05 02:35:48;;;;;;;6.93;4.57;;;4.30;99.90;;;;;;5059091;28;20254;-76
2021/03/05 02:38:19;;;;;;;9.60;4.83;;;4.30;99.90;;;;;;5043840;28;20214;-76
2021/03/05 02:40:54;;;;;;;9.73;5.47;;;4.20;99.90;;;;;;5043689;28;20232;-77
2021/03/05 02:43:23;;;;;;;7.73;4.43;;;4.20;99.90;;;;;;5053140;28;20203;-76
2021/03/05 02:45:57;;;;;;;8.83;5.43;;;4.10;99.90;;;;;;5047127;28;20224;-76
2021/03/05 02:48:30;;;;;;;6.07;4.17;;;4.00;99.90;;;;;;5045715;28;20199;-75
2021/03/05 02:51:01;;;;;;;10.37;4.73;;;3.90;99.90;;;;;;5039014;28;20283;-75
2021/03/05 02:53:29;;;;;;;7.57;4.67;;;4.00;99.90;;;;;;5048282;28;20206;-76
2021/03/05 02:56:00;;;;;;;7.83;4.90;;;4.00;99.90;;;;;;5035182;28;20209;-76
2021/03/05 02:58:28;;;;;;;8.53;4.83;;;4.00;99.90;;;;;;5061482;28;20209;-76
2021/03/05 03:00:56;;;;;;;7.30;4.03;;;3.80;99.90;;;;;;5069385;28;20679;-76
2021/03/05 03:03:23;;;;;;;6.47;4.93;;;3.70;99.90;;;;;;5051653;28;20253;-76
2021/03/05 03:05:51;;;;;;;15.77;5.40;;;3.60;99.90;;;;;;5061033;28;20208;-76
2021/03/05 03:08:19;;;;;;;9.07;4.40;;;3.70;99.90;;;;;;5053009;28;20229;-76
2021/03/05 03:10:47;;;;;;;7.50;5.23;;;3.70;99.90;;;;;;5059645;28;20577;-76
2021/03/05 03:13:14;;;;;;;10.30;5.33;;;3.70;99.90;;;;;;5046684;28;20196;-76
2021/03/05 03:15:42;;;;;;;8.70;5.30;;;3.80;99.90;;;;;;5058175;28;20209;-76
2021/03/05 03:18:12;;;;;;;10.17;5.30;;;3.70;99.90;;;;;;5066670;28;20563;-76
2021/03/05 03:20:41;;;;;;;9.70;4.53;;;3.80;99.90;;;;;;5064732;28;20303;-75
2021/03/05 03:23:08;;;;;;;8.80;5.23;;;3.60;99.90;;;;;;5048416;28;20207;-75
2021/03/05 03:25:35;;;;;;;7.57;4.70;;;3.60;99.90;;;;;;5045667;28;20208;-76
2021/03/05 03:28:01;;;;;;;8.00;4.93;;;3.70;99.90;;;;;;5065596;28;20196;-75
2021/03/05 03:30:28;;;;;;;8.40;4.70;;;3.60;99.90;;;;;;5047947;28;20261;-76
2021/03/05 03:32:56;;;;;;;8.77;4.60;;;3.60;99.90;;;;;;5065844;28;20208;-76
2021/03/05 03:35:23;;;;;;;11.20;5.17;;;3.80;99.90;;;;;;5049380;28;20287;-76
2021/03/05 03:38:09;;;;;;;7.93;4.73;;;3.70;99.90;;;;;;5067182;28;20204;-75
2021/03/05 03:40:36;;;;;;;10.77;5.93;;;3.60;99.90;;;;;;5046750;28;20215;-75
2021/03/05 03:43:04;;;;;;;9.57;5.57;;;3.50;99.90;;;;;;5051565;28;20215;-76
2021/03/05 03:45:32;;;;;;;9.87;5.10;;;3.70;99.90;;;;;;5052232;28;20277;-76
2021/03/05 03:48:00;;;;;;;7.60;4.87;;;3.60;99.90;;;;;;5064514;28;20254;-76
2021/03/05 03:50:38;;;;;;;9.57;5.53;;;3.70;99.90;;;;;;5046710;28;20648;-75
2021/03/05 03:53:13;;;;;;;8.23;4.90;;;3.60;99.90;;;;;;5061764;28;20365;-76
2021/03/05 03:55:44;;;;;;;7.70;5.33;;;3.40;99.90;;;;;;5061805;28;20253;-76
2021/03/05 03:58:11;;;;;;;8.30;5.10;;;3.50;99.90;;;;;;5046560;28;20244;-76
2021/03/05 04:00:38;;;;;;;10.60;4.97;;;3.60;99.90;;;;;;5063563;28;20198;-79
2021/03/05 04:03:06;;;;;;;8.67;5.33;;;3.40;99.90;;;;;;5031615;28;20204;-76
2021/03/05 04:05:37;;;;;;;9.57;5.77;;;3.30;99.90;;;;;;5043214;28;20212;-77
2021/03/05 04:08:07;;;;;;;8.40;5.00;;;3.20;99.90;;;;;;5050959;28;20600;-76
2021/03/05 04:10:35;;;;;;;10.53;4.97;;;3.10;99.90;;;;;;5038304;28;20232;-76
2021/03/05 04:13:02;;;;;;;9.27;4.67;;;3.10;99.90;;;;;;5017713;28;20208;-76
2021/03/05 04:15:29;;;;;;;8.80;4.90;;;3.10;99.90;;;;;;5007872;28;20195;-77
2021/03/05 04:17:56;;;;;;;7.50;4.97;;;3.20;99.90;;;;;;5022577;28;20692;-77
2021/03/05 04:20:25;;;;;;;8.53;5.17;;;3.20;99.90;;;;;;5046435;28;20558;-76
2021/03/05 04:22:53;;;;;;;7.60;4.23;;;3.00;99.90;;;;;;5038508;28;20735;-77
2021/03/05 04:25:20;;;;;;;12.33;5.17;;;3.10;99.90;;;;;;5040427;28;20216;-77
2021/03/05 04:27:47;;;;;;;9.00;4.83;;;3.10;99.90;;;;;;5005012;28;20706;-76
2021/03/05 04:30:14;;;;;;;10.93;4.87;;;3.00;99.90;;;;;;5028135;28;20204;-76
2021/03/05 04:32:41;;;;;;;9.73;4.67;;;3.10;99.90;;;;;;5049159;28;20545;-76
2021/03/05 04:35:09;;;;;;;8.53;5.03;;;3.00;99.90;;;;;;5026319;28;20253;-76
2021/03/05 04:37:37;;;;;;;7.90;5.07;;;2.80;99.90;;;;;;5039381;28;20213;-76
2021/03/05 04:40:05;;;;;;;8.37;4.40;;;2.90;99.90;;;;;;5021010;28;20316;-76
2021/03/05 04:42:32;;;;;;;10.97;4.37;;;2.80;99.90;;;;;;5031646;28;20204;-76
2021/03/05 04:44:58;;;;;;;8.73;4.80;;;2.70;99.90;;;;;;5029337;28;20274;-76
2021/03/05 04:47:25;;;;;;;7.47;4.37;;;2.70;99.90;;;;;;5020978;28;20250;-77
2021/03/05 04:49:52;;;;;;;11.57;4.80;;;2.80;99.90;;;;;;5029916;28;20308;-76
2021/03/05 04:52:18;;;;;;;8.97;4.37;;;2.80;99.90;;;;;;5026179;28;20199;-77
2021/03/05 04:54:45;;;;;;;7.33;4.80;;;2.80;99.90;;;;;;5038293;28;20216;-77
2021/03/05 04:57:11;;;;;;;10.57;4.93;;;2.80;99.90;;;;;;5040359;28;20369;-76
2021/03/05 04:59:37;;;;;;;8.33;4.00;;;2.80;99.90;;;;;;5025726;28;20605;-79
2021/03/05 05:02:04;;;;;;;5.63;3.80;;;2.70;99.90;;;;;;5042222;28;20208;-76
2021/03/05 05:04:30;;;;;;;7.60;3.67;;;2.60;99.90;;;;;;5026309;28;20249;-75
2021/03/05 05:06:57;;;;;;;7.97;4.10;;;2.70;99.90;;;;;;5042730;28;20192;-75
2021/03/05 05:09:23;;;;;;;7.40;3.63;;;2.60;99.90;;;;;;5034927;28;20235;-75
2021/03/05 05:11:51;;;;;;;5.97;4.00;;;2.70;99.90;;;;;;5037161;28;20205;-76
2021/03/05 05:14:17;;;;;;;7.20;3.43;;;2.70;99.90;;;;;;5044350;28;20212;-77
2021/03/05 05:16:43;;;;;;;7.77;4.40;;;2.60;99.90;;;;;;5043743;28;20572;-76
2021/03/05 05:19:10;;;;;;;9.63;4.30;;;2.80;99.90;;;;;;5044624;28;20310;-76
2021/03/05 05:21:37;;;;;;;6.70;3.50;;;2.70;99.90;;;;;;5049103;28;20201;-77
2021/03/05 05:24:05;;;;;;;6.03;3.50;;;2.80;99.90;;;;;;5062255;28;20200;-77
2021/03/05 05:26:32;;;;;;;6.63;3.73;;;2.80;99.90;;;;;;5040116;28;20767;-77
2021/03/05 05:28:59;;;;;;;4.87;2.97;;;2.60;99.90;;;;;;5039249;28;21161;-77
2021/03/05 05:31:25;;;;;;;9.17;3.73;;;2.60;99.90;;;;;;5045441;28;20241;-77
2021/03/05 05:33:52;;;;;;;5.67;3.03;;;2.60;99.90;;;;;;5042333;28;20242;-78
2021/03/05 05:36:18;;;;;;;4.43;3.10;;;2.50;99.90;;;;;;5055288;28;20204;-77
2021/03/05 05:38:44;;;;;;;11.80;4.47;;;2.50;99.90;;;;;;5040913;28;20215;-78
2021/03/05 05:41:14;;;;;;;6.57;3.80;;;2.60;99.90;;;;;;5057865;28;20204;-76
2021/03/05 05:43:41;;;;;;;5.80;3.43;;;2.60;99.90;;;;;;5044137;28;20266;-77
2021/03/05 05:46:09;;;;;;;5.30;3.83;;;2.70;99.90;;;;;;5027691;28;20614;-76
2021/03/05 05:48:37;;;;;;;7.93;4.10;;;2.60;99.90;;;;;;5029201;28;20223;-77
2021/03/05 05:51:13;;;;;;;11.77;4.23;;;2.80;99.90;;;;;;5056270;28;20328;-77
2021/03/05 05:53:43;;;;;;;7.73;3.63;;;2.90;99.90;;;;;;5046429;28;20721;-77
2021/03/05 05:56:10;;;;;;;9.00;3.77;;;2.80;99.90;;;;;;5058883;28;20529;-77
2021/03/05 05:58:36;;;;;;;7.03;3.30;;;2.70;99.90;;;;;;5047723;28;20574;-77
2021/03/05 06:01:03;;;;;;;6.63;4.10;;;2.80;99.90;;;;;;5050777;28;20204;-76
2021/03/05 06:03:29;;;;;;;7.40;4.67;;;2.70;99.90;;;;;;5031940;28;20201;-77
2021/03/05 06:05:56;;;;;;;7.43;3.33;;;2.70;99.90;;;;;;5052109;28;20215;-76
2021/03/05 06:08:23;;;;;;;7.07;4.40;;;2.80;99.90;;;;;;5044853;28;20232;-77
2021/03/05 06:10:53;;;;;;;8.33;4.00;;;2.70;99.90;;;;;;5060520;28;20572;-77
2021/03/05 06:13:20;;;;;;;11.47;4.37;;;2.80;99.90;;;;;;5047973;28;20210;-77
2021/03/05 06:16:11;;;;;;;8.07;3.70;;;3.00;99.90;;;;;;5061288;28;20262;-76
2021/03/05 06:18:38;;;;;;;11.60;3.70;;;2.90;99.90;;;;;;5059756;28;20224;-77
2021/03/05 06:21:04;;;;;;;5.00;3.67;;;2.70;99.90;;;;;;5044594;28;20195;-77
2021/03/05 06:23:34;;;;;;;6.77;3.57;;;2.60;99.90;;;;;;5060680;28;20223;-77
2021/03/05 06:26:01;;;;;;;6.70;4.23;;;2.50;99.90;;;;;;5046564;28;20319;-77
2021/03/05 06:28:28;;;;;;;5.50;4.10;;;2.40;99.90;;;;;;5047348;28;20204;-77
2021/03/05 06:30:55;;;;;;;12.20;4.20;;;2.50;99.90;;;;;;5063215;28;20291;-78
2021/03/05 06:33:30;;;;;;;6.67;2.63;;;2.50;99.90;;;;;;5063153;28;20545;-77
2021/03/05 06:36:15;;;;;;;7.30;3.33;;;2.60;99.90;;;;;;5047079;28;20206;-76
2021/03/05 06:38:44;;;;;;;4.60;2.80;;;2.50;99.90;;;;;;5056704;28;20226;-77
2021/03/05 06:41:24;;;;;;;8.93;3.43;;;2.50;99.90;;;;;;5067408;28;20207;-78
2021/03/05 06:43:50;;;;;;;5.30;3.20;;;2.50;99.90;;;;;;5054208;28;20206;-78
2021/03/05 06:46:35;;;;;;;3.97;2.93;;;2.30;99.90;;;;;;5067427;28;20229;-78
2021/03/05 06:49:10;;;;;;;6.10;3.00;;;2.40;99.90;;;;;;5058805;28;20191;-78
2021/03/05 06:51:37;;;;;;;6.87;3.73;;;2.40;99.90;;;;;;5052904;28;20754;-79
2021/03/05 06:54:13;;;;;;;5.73;3.10;;;2.40;99.90;;;;;;5064344;28;20292;-78
2021/03/05 06:56:42;;;;;;;8.47;3.43;;;2.40;99.90;;;;;;5047300;28;20214;-79
2021/03/05 06:59:10;;;;;;;7.27;2.93;;;2.50;99.90;;;;;;5048476;28;20272;-78
2021/03/05 07:01:52;;;;;;;4.77;2.73;;;2.50;99.90;;;;;;5060815;28;20356;-78
2021/03/05 07:04:27;;;;;;;10.83;3.87;;;2.60;99.90;;;;;;5066479;28;20296;-78
2021/03/05 07:07:02;;;;;;;6.60;3.63;;;2.80;99.90;;;;;;5051326;28;20226;-78
2021/03/05 07:09:39;;;;;;;9.33;2.83;;;2.80;99.90;;;;;;5042581;28;20265;-77
2021/03/05 07:12:25;;;;;;;4.03;2.53;;;2.70;99.90;;;;;;5045570;28;20203;-76
2021/03/05 07:15:12;;;;;;;7.20;2.90;;;2.80;99.90;;;;;;5032472;28;20271;-77
2021/03/05 07:17:39;;;;;;;3.60;2.23;;;2.80;99.90;;;;;;5043100;28;20203;-79
2021/03/05 07:20:14;;;;;;;13.07;2.90;;;2.90;99.90;;;;;;5051840;28;20578;-80
2021/03/05 07:22:46;;;;;;;2.60;2.10;;;2.90;99.90;;;;;;5049152;28;20515;-81
2021/03/05 07:25:16;;;;;;;5.20;2.80;;;3.10;99.90;;;;;;5063326;28;20299;-78
2021/03/05 07:27:45;;;;;;;10.40;2.67;;;3.10;99.90;;;;;;5041161;28;20218;-77
2021/03/05 07:30:14;;;;;;;7.10;2.53;;;3.20;99.90;;;;;;5058328;28;20237;-77
2021/03/05 07:32:47;;;;;;;6.23;2.60;;;3.40;99.90;;;;;;5041394;28;20557;-78
2021/03/05 07:35:22;;;;;;;4.53;2.37;;;3.40;99.90;;;;;;5048499;28;20643;-78
2021/03/05 07:37:53;;;;;;;4.27;2.20;;;3.50;99.90;;;;;;5063287;28;20206;-78
2021/03/05 07:40:20;;;;;;;7.90;2.67;;;3.60;99.90;;;;;;5051219;28;20277;-78
2021/03/05 07:42:48;;;;;;;3.80;2.00;;;3.60;99.90;;;;;;5037584;28;20272;-81
2021/03/05 07:45:16;;;;;;;5.50;2.53;;;3.80;99.90;;;;;;5047134;28;20234;-78
2021/03/05 07:47:45;;;;;;;6.33;2.57;;;3.70;99.90;;;;;;5056356;28;20669;-79
2021/03/05 07:50:21;;;;;;;4.93;2.93;;;3.80;99.90;;;;;;5065754;28;20207;-79
2021/03/05 07:52:48;;;;;;;4.17;2.80;;;4.10;99.90;;;;;;5046301;28;20252;-81
2021/03/05 07:55:15;;;;;;;8.30;2.57;;;4.20;99.90;;;;;;5067288;28;20620;-79
2021/03/05 07:57:46;;;;;;;7.83;2.63;;;4.30;99.90;;;;;;5044717;28;20196;-78
2021/03/05 08:00:15;;;;;;;2.97;2.03;;;4.20;99.90;;;;;;5062778;28;20239;-77
2021/03/05 08:02:56;;;;;;;7.30;2.93;;;4.70;99.90;;;;;;5067067;28;20203;-79
2021/03/05 08:05:56;;;;;;;5.37;2.67;;;5.00;99.90;;;;;;5050307;28;20296;-78
2021/03/05 08:08:24;;;;;;;2.83;1.93;;;5.20;99.90;;;;;;5049052;28;20253;-79
2021/03/05 08:11:03;;;;;;;2.93;1.87;;;5.20;99.90;;;;;;5064994;28;20246;-79
2021/03/05 08:13:43;;;;;;;7.37;2.17;;;5.30;99.90;;;;;;5047343;28;20196;-78
2021/03/05 08:16:42;;;;;;;2.77;1.90;;;5.30;99.90;;;;;;5047410;28;20572;-80
2021/03/05 08:19:09;;;;;;;5.20;3.07;;;5.50;99.90;;;;;;5031560;28;20212;-80
2021/03/05 08:21:51;;;;;;;5.83;2.43;;;5.80;99.90;;;;;;5074736;28;20211;-81
2021/03/05 08:24:25;;;;;;;4.23;2.37;;;6.30;99.90;;;;;;5063669;28;20235;-82
2021/03/05 08:27:08;;;;;;;4.93;2.27;;;6.40;99.90;;;;;;5055998;28;20358;-82
2021/03/05 08:29:47;;;;;;;5.83;2.27;;;6.80;99.90;;;;;;5064980;28;20193;-81
2021/03/05 08:35:07;;;;;;;5.40;1.80;;;6.70;99.90;;;;;;5063546;28;20204;-80
2021/03/05 08:38:00;;;;;;;3.80;2.03;;;6.30;99.90;;;;;;5040522;28;20352;-80
2021/03/05 08:40:27;;;;;;;4.77;2.33;;;6.20;99.90;;;;;;5043997;28;20227;-79
2021/03/05 08:42:58;;;;;;;5.27;2.20;;;6.50;99.90;;;;;;5051269;28;20810;-78
2021/03/05 08:45:29;;;;;;;6.83;2.43;;;7.10;99.90;;;;;;5061854;28;20239;-79
2021/03/05 08:48:03;;;;;;;6.13;2.03;;;7.20;99.90;;;;;;5068841;28;20201;-78
2021/03/05 08:50:33;;;;;;;2.97;1.70;;;7.30;99.90;;;;;;5052750;28;20200;-76
2021/03/05 08:53:05;;;;;;;4.93;1.33;;;7.90;99.90;;;;;;5044309;28;20392;-76
2021/03/05 08:55:33;;;;;;;2.67;1.70;;;7.90;99.50;;;;;;5046869;28;20277;-78
2021/03/05 08:58:00;;;;;;;4.17;1.80;;;8.30;97.90;;;;;;5052531;28;20976;-78
2021/03/05 09:00:33;;;;;;;2.50;1.50;;;8.10;97.30;;;;;;5064873;28;20280;-78
2021/03/05 09:03:12;;;;;;;2.30;1.63;;;8.50;97.90;;;;;;5047615;28;21242;-77
2021/03/05 09:05:42;;;;;;;2.90;1.60;;;9.10;96.20;;;;;;5027110;28;20284;-77
2021/03/05 09:08:10;;;;;;;4.87;1.80;;;8.90;95.30;;;;;;5063465;28;20213;-81
2021/03/05 09:10:44;;;;;;;3.30;2.13;;;8.30;96.90;;;;;;5045020;28;20337;-73
2021/03/05 09:13:14;;;;;;;2.97;1.70;;;7.70;97.70;;;;;;5058606;28;20406;-73
2021/03/05 09:15:44;;;;;;;3.83;1.40;;;7.90;97.90;;;;;;5057604;28;20266;-74
2021/03/05 09:18:17;;;;;;;4.20;1.53;;;8.60;96.20;;;;;;5059228;28;20206;-74
2021/03/05 09:20:47;;;;;;;2.83;1.87;;;9.10;94.70;;;;;;5054516;28;20662;-74
2021/03/05 09:23:30;;;;;;;2.77;1.40;;;9.10;92.60;;;;;;5057755;28;20688;-72
2021/03/05 09:26:05;;;;;;;5.50;1.83;;;9.50;97.20;;;;;;5059341;28;20247;-71
2021/03/05 09:28:56;;;;;;;2.83;1.23;;;8.80;92.10;;;;;;5039030;28;20236;-73
2021/03/05 09:31:24;;;;;;;1.47;1.00;;;8.20;93.40;;;;;;5063435;28;20218;-72
2021/03/05 09:33:51;;;;;;;2.73;1.00;;;8.00;92.90;;;;;;5064083;28;20298;-73
2021/03/05 09:36:22;;;;;;;1.83;1.03;;;8.40;91.30;;;;;;5065639;28;20207;-74
2021/03/05 09:38:54;;;;;;;2.77;1.30;;;8.30;90.60;;;;;;5058813;28;20695;-75
2021/03/05 09:41:22;;;;;;;3.60;1.10;;;8.90;86.60;;;;;;5049303;28;20514;-73
2021/03/05 09:43:59;;;;;;;1.83;0.80;;;8.60;88.60;;;;;;5063290;28;20204;-74
2021/03/05 09:46:28;;;;;;;3.63;1.20;;;8.10;84.80;;;;;;5061878;28;20301;-71
2021/03/05 09:48:56;;;;;;;1.30;0.90;;;8.40;85.40;;;;;;5044275;28;20291;-73
2021/03/05 09:51:24;;;;;;;1.60;0.63;;;8.40;81.10;;;;;;5059002;28;20286;-73
2021/03/05 09:53:56;;;;;;;1.77;1.23;;;8.50;79.20;;;;;;5061310;28;20199;-72
2021/03/05 09:56:26;;;;;;;2.13;1.10;;;7.90;78.00;;;;;;5047237;28;20296;-74
2021/03/05 09:58:53;;;;;;;3.43;1.30;;;8.20;81.60;;;;;;5055973;28;20219;-73
2021/03/05 10:01:20;;;;;;;3.10;1.30;;;8.40;82.80;;;;;;5062170;28;20230;-72
2021/03/05 10:03:58;;;;;;;7.07;1.10;;;8.50;79.50;;;;;;5058700;28;20276;-73
2021/03/05 10:06:27;;;;;;;2.60;1.23;;;8.40;78.50;;;;;;5059489;28;20219;-73
2021/03/05 10:09:05;;;;;;;2.17;1.07;;;8.40;74.80;;;;;;5050093;28;20595;-73
2021/03/05 10:11:37;;;;;;;2.90;0.93;;;8.60;69.90;;;;;;5062678;28;21121;-77
2021/03/05 10:14:25;;;;;;;4.43;1.23;;;8.80;70.80;;;;;;5027516;28;20196;-77
2021/03/05 10:16:52;;;;;;;4.97;0.90;;;8.60;67.10;;;;;;5045649;28;20228;-73
2021/03/05 10:19:23;;;;;;;2.67;1.00;;;9.10;65.30;;;;;;5047724;28;20200;-73
2021/03/05 10:21:52;;;;;;;3.10;0.67;;;8.70;62.20;;;;;;5047799;28;20276;-73
2021/03/05 10:24:24;;;;;;;6.23;0.87;;;8.70;58.30;;;;;;5063958;28;20264;-74
2021/03/05 10:27:19;;;;;;;4.30;1.00;;;8.80;55.10;;;;;;5054847;28;20230;-72
2021/03/05 10:29:46;;;;;;;5.93;0.70;;;9.20;55.70;;;;;;5044979;28;20265;-73
2021/03/05 10:32:28;;;;;;;1.93;0.80;;;9.10;55.60;;;;;;5060551;28;20192;-73
2021/03/05 10:35:01;;;;;;;2.17;0.90;;;9.20;53.40;;;;;;5045145;28;20197;-74
2021/03/05 10:37:28;;;;;;;2.40;0.70;;;9.30;54.80;;;;;;5056238;28;20577;-72
2021/03/05 10:39:55;;;;;;;2.40;0.90;;;9.30;56.20;;;;;;5042404;28;20197;-72
2021/03/05 10:42:24;;;;;;;4.67;1.00;;;9.10;55.80;;;;;;5024547;28;20203;-75
2021/03/05 10:44:52;;;;;;;1.97;0.97;;;8.90;51.60;;;;;;5038066;28;20223;-73
2021/03/05 10:47:19;;;;;;;2.37;0.83;;;8.80;51.80;;;;;;5060179;28;20628;-72
2021/03/05 10:49:47;;;;;;;4.60;1.00;;;8.70;53.20;;;;;;5059614;28;20601;-71
2021/03/05 10:52:15;;;;;;;0.83;0.60;;;8.60;51.40;;;;;;5061463;28;20213;-72
2021/03/05 10:54:43;;;;;;;2.80;0.80;;;8.40;49.30;;;;;;5061911;28;20618;-72
2021/03/05 10:57:15;;;;;;;2.57;0.90;;;9.00;48.00;;;;;;5043456;28;20249;-72
2021/03/05 10:59:43;;;;;;;2.63;0.97;;;9.50;47.40;;;;;;5058430;28;20224;-72
2021/03/05 11:02:09;;;;;;;1.70;0.73;;;9.30;41.80;;;;;;5055539;28;22835;-72
2021/03/05 11:04:36;;;;;;;0.87;0.60;;;9.60;39.70;;;;;;5058715;28;20195;-72
2021/03/05 11:07:04;;;;;;;1.63;0.57;;;9.40;41.20;;;;;;5030942;28;20518;-71
2021/03/05 11:09:30;;;;;;;1.27;0.67;;;9.20;40.30;;;;;;5044530;28;20314;-72
2021/03/05 11:11:57;;;;;;;1.73;1.13;;;9.30;39.40;;;;;;5061780;28;20245;-72
2021/03/05 11:14:25;;;;;;;1.63;1.03;;;9.50;41.30;;;;;;5046805;28;20633;-73
2021/03/05 11:16:53;;;;;;;7.07;0.77;;;9.80;41.60;;;;;;5060240;28;20219;-72
2021/03/05 11:19:24;;;;;;;3.50;0.60;;;9.80;35.40;;;;;;5056330;28;20223;-71
2021/03/05 11:21:51;;;;;;;5.60;0.80;;;9.80;35.30;;;;;;5058642;28;20264;-72
2021/03/05 11:24:18;;;;;;;2.23;0.70;;;9.70;41.70;;;;;;5057619;28;20622;-73
2021/03/05 11:26:45;;;;;;;2.83;0.90;;;9.80;36.00;;;;;;5045394;28;20256;-73
2021/03/05 11:29:13;;;;;;;1.07;0.53;;;10.40;35.10;;;;;;5064156;28;20346;-73
2021/03/05 11:31:39;;;;;;;1.47;0.50;;;10.50;32.20;;;;;;5056386;28;20286;-72
2021/03/05 11:34:06;;;;;;;0.73;0.40;;;9.60;30.20;;;;;;5029788;28;20211;-72
2021/03/05 11:36:33;;;;;;;0.70;0.50;;;10.20;28.70;;;;;;5032257;28;20315;-72
2021/03/05 11:38:59;;;;;;;0.87;0.50;;;9.80;25.20;;;;;;5040541;28;20984;-73
2021/03/05 11:41:26;;;;;;;0.70;0.40;;;10.50;23.50;;;;;;5058118;28;20262;-73
2021/03/05 11:44:09;;;;;;;0.97;0.70;;;10.80;18.40;;;;;;5045579;28;20726;-73
2021/03/05 11:46:37;;;;;;;0.97;0.47;;;10.90;19.20;;;;;;5051737;28;20719;-72
2021/03/05 11:49:04;;;;;;;1.70;0.60;;;10.70;20.00;;;;;;5049707;28;20308;-73
2021/03/05 11:51:30;;;;;;;1.70;0.47;;;11.10;12.60;;;;;;5055950;28;20200;-74
2021/03/05 11:53:57;;;;;;;2.73;0.57;;;11.60;11.40;;;;;;5025164;28;20626;-72
2021/03/05 11:56:23;;;;;;;3.63;0.50;;;11.80;12.60;;;;;;5053373;28;20237;-71
2021/03/05 11:58:50;;;;;;;1.80;0.40;;;11.30;8.20;;;;;;5048226;28;20647;-71
2021/03/05 12:01:16;;;;;;;1.03;0.63;;;12.10;8.60;;;;;;5049590;28;20211;-73
2021/03/05 12:03:43;;;;;;;1.50;0.60;;;11.30;5.60;;;;;;5042966;28;20609;-73
2021/03/05 12:06:09;;;;;;;1.90;0.53;;;11.70;6.20;;;;;;5039088;28;20311;-73
2021/03/05 12:08:35;;;;;;;1.10;0.50;;;11.60;3.20;;;;;;5053936;28;20229;-72
2021/03/05 12:11:02;;;;;;;1.70;0.40;;;12.10;1.00;;;;;;5050823;28;20659;-73
2021/03/05 12:13:28;;;;;;;3.23;0.60;;;12.10;1.00;;;;;;5052030;28;20195;-73
2021/03/05 12:15:55;;;;;;;2.50;0.60;;;12.00;1.00;;;;;;5034600;28;20226;-72
2021/03/05 12:18:22;;;;;;;2.33;0.43;;;11.70;1.00;;;;;;5051307;28;20213;-72
2021/03/05 12:20:48;;;;;;;1.33;0.30;;;11.10;1.00;;;;;;5054522;28;20203;-73
2021/03/05 12:23:15;;;;;;;1.93;0.43;;;10.90;1.00;;;;;;5053801;28;20219;-73
2021/03/05 12:25:41;;;;;;;1.47;0.47;;;11.40;1.00;;;;;;5035596;28;20277;-73
2021/03/05 12:28:07;;;;;;;0.77;0.40;;;11.40;1.00;;;;;;5043729;28;20199;-72
2021/03/05 12:30:34;;;;;;;1.47;0.40;;;12.00;1.00;;;;;;5034842;28;20199;-73
2021/03/05 12:33:01;;;;;;;3.63;0.47;;;12.40;1.00;;;;;;5041372;28;20210;-73
2021/03/05 12:35:29;;;;;;;1.43;0.40;;;12.40;1.00;;;;;;5037370;28;20235;-74
2021/03/05 12:37:56;;;;;;;1.23;0.20;;;12.50;1.00;;;;;;5036086;28;20214;-72
2021/03/05 12:40:23;;;;;;;2.57;0.40;;;12.40;1.00;;;;;;5053056;28;20235;-74
2021/03/05 12:42:54;;;;;;;0.77;0.53;;;12.30;1.00;;;;;;5056342;28;20204;-74
2021/03/05 12:45:22;;;;;;;3.43;0.53;;;11.40;1.00;;;;;;5053969;28;20227;-73
2021/03/05 12:47:49;;;;;;;1.23;0.50;;;11.90;1.00;;;;;;5054006;28;20603;-73
2021/03/05 12:50:15;;;;;;;1.23;0.27;;;12.10;1.00;;;;;;5051604;28;20215;-73
2021/03/05 12:52:42;;;;;;;1.87;0.40;;;12.70;1.00;;;;;;5051858;28;20273;-72
2021/03/05 12:55:09;;;;;;;0.43;0.20;;;12.80;1.00;;;;;;5024325;28;20207;-72
2021/03/05 12:57:35;;;;;;;0.87;0.40;;;13.30;1.00;;;;;;5050918;28;20660;-73
2021/03/05 13:00:04;;;;;;;0.73;0.50;;;12.50;1.00;;;;;;5051901;28;20212;-73
2021/03/05 13:02:30;;;;;;;0.70;0.40;;;12.40;1.00;;;;;;5017659;28;20199;-73
2021/03/05 13:04:57;;;;;;;0.60;0.43;;;12.30;1.00;;;;;;5037721;28;20308;-73
2021/03/05 13:07:23;;;;;;;2.07;0.50;;;12.40;1.00;;;;;;5049749;28;20216;-74
2021/03/05 13:09:49;;;;;;;1.13;0.50;;;12.90;1.00;;;;;;5046157;28;20867;-73
2021/03/05 13:12:16;;;;;;;1.47;0.50;;;12.80;1.00;;;;;;5048057;28;20208;-73